Time;durP1;ratioP1;P1;durP2;ratioP2;P2;SDS_P1;SDS_P2;PMS_P1;PMS_P2;Temp;Humidity;BMP_temperature;BMP_pressure;BME280_temperature;BME280_humidity;BME280_pressure;Samples;Min_cycle;Max_cycle;Signal;HPM_P1;HPM_P2
2021/05/08 00:04:33;;;;;;;6.2;3.6;;;;;;;3.23;100;98606.01;;;;
2021/05/08 00:14:30;;;;;;;8;5.9;;;;;;;3.26;100;98610.81;;;;
2021/05/08 00:24:28;;;;;;;10.8;9.6;;;;;;;3.34;100;98619.09;;;;
2021/05/08 00:34:26;;;;;;;13.1;9.4;;;;;;;3.51;100;98632.22;;;;
2021/05/08 00:44:24;;;;;;;14.4;7.5;;;;;;;3.61;100;98644.8;;;;
2021/05/08 00:54:22;;;;;;;11.3;8.1;;;;;;;3.82;100;98643.78;;;;
2021/05/08 01:04:19;;;;;;;13;7.5;;;;;;;3.82;100;98638.45;;;;
2021/05/08 01:14:17;;;;;;;9;7.5;;;;;;;4.1;100;98653.98;;;;
2021/05/08 01:24:15;;;;;;;11.6;6.6;;;;;;;4.25;100;98658.56;;;;
2021/05/08 01:34:13;;;;;;;10.7;7.5;;;;;;;4.24;100;98667.62;;;;
2021/05/08 01:44:11;;;;;;;11.3;7;;;;;;;4.28;100;98684.7;;;;
2021/05/08 01:54:09;;;;;;;9;6.6;;;;;;;4.34;100;98694.34;;;;
2021/05/08 02:04:09;;;;;;;10.6;6.8;;;;;;;4.32;100;98694.59;;;;
2021/05/08 02:14:05;;;;;;;12.2;8.3;;;;;;;4.34;100;98707.69;;;;
2021/05/08 02:24:05;;;;;;;12;6.4;;;;;;;4.31;100;98700.98;;;;
2021/05/08 02:34:01;;;;;;;6.6;5;;;;;;;4.31;100;98726.86;;;;
2021/05/08 02:43:59;;;;;;;9.4;5.8;;;;;;;4.38;100;98738.89;;;;
2021/05/08 02:53:57;;;;;;;9.5;5.4;;;;;;;4.36;100;98746.37;;;;
2021/05/08 03:03:55;;;;;;;8.5;5.5;;;;;;;4.25;100;98751.92;;;;
2021/05/08 03:13:53;;;;;;;12;7.1;;;;;;;4.16;100;98767.65;;;;
2021/05/08 03:23:51;;;;;;;10.6;5.8;;;;;;;4.28;100;98770.06;;;;
2021/05/08 03:33:49;;;;;;;6.7;4.8;;;;;;;4.37;100;98789.86;;;;
2021/05/08 03:43:47;;;;;;;8.8;6.1;;;;;;;4.52;100;98819.25;;;;
2021/05/08 03:53:45;;;;;;;10.3;6.5;;;;;;;4.8;100;98818.79;;;;
2021/05/08 04:03:43;;;;;;;10.2;5.8;;;;;;;4.9;100;98816.13;;;;
2021/05/08 04:13:41;;;;;;;8.4;7.3;;;;;;;4.93;100;98834.3;;;;
2021/05/08 04:23:39;;;;;;;9.3;6.1;;;;;;;4.94;100;98851.13;;;;
2021/05/08 04:33:37;;;;;;;12.1;6.8;;;;;;;5.15;100;98860.78;;;;
2021/05/08 04:43:35;;;;;;;8.6;5.3;;;;;;;5.04;100;98870.64;;;;
2021/05/08 04:53:34;;;;;;;11.5;6.2;;;;;;;5.23;100;98886.98;;;;
2021/05/08 05:03:32;;;;;;;8.2;6.1;;;;;;;5.51;100;98893.69;;;;
2021/05/08 05:13:30;;;;;;;9.9;7;;;;;;;5.38;100;98903.02;;;;
2021/05/08 05:23:28;;;;;;;8.3;5.8;;;;;;;5.88;100;98904.94;;;;
2021/05/08 05:33:28;;;;;;;7.7;6.2;;;;;;;6.03;100;98929.02;;;;
2021/05/08 05:43:24;;;;;;;7.6;5.3;;;;;;;6.3;100;98935.91;;;;
2021/05/08 05:53:23;;;;;;;7.5;4.8;;;;;;;6.98;100;98935.14;;;;
2021/05/08 06:03:22;;;;;;;6.8;3.8;;;;;;;7.25;98.75781;98937.44;;;;
2021/05/08 06:13:19;;;;;;;7.4;4.5;;;;;;;7.25;97.76758;98940.12;;;;
2021/05/08 06:23:18;;;;;;;8.8;4.5;;;;;;;7.76;96.52246;98939.77;;;;
2021/05/08 06:33:16;;;;;;;7;4.1;;;;;;;7.79;93.9668;98945.37;;;;
2021/05/08 06:43:15;;;;;;;5.7;2.5;;;;;;;7.65;93.09766;98943.59;;;;
2021/05/08 06:53:13;;;;;;;7.1;3.3;;;;;;;8.01;92.65137;98955.67;;;;
2021/05/08 07:03:12;;;;;;;8.4;4.3;;;;;;;8.14;91.16113;98951.52;;;;
2021/05/08 07:13:10;;;;;;;6.4;3.5;;;;;;;7.64;90.72168;98961.56;;;;
2021/05/08 07:23:09;;;;;;;6.5;3.7;;;;;;;7.71;92.49707;98955.88;;;;
2021/05/08 07:33:07;;;;;;;12.9;4.7;;;;;;;8.14;91.45117;98948.84;;;;
2021/05/08 07:43:06;;;;;;;7.8;3.8;;;;;;;8.37;90.69531;98954.27;;;;
2021/05/08 07:53:04;;;;;;;4.9;3.4;;;;;;;9.31;85.71094;98962.58;;;;
2021/05/08 08:03:03;;;;;;;8;3.1;;;;;;;9.28;84.77246;98957.78;;;;
2021/05/08 08:13:01;;;;;;;7.2;3.6;;;;;;;8.54;81.42285;98975.31;;;;
2021/05/08 08:23:00;;;;;;;7;3.4;;;;;;;9.26;82.70508;98974.23;;;;
2021/05/08 08:32:58;;;;;;;6.9;4.3;;;;;;;9.79;78.49609;98987.48;;;;
2021/05/08 08:42:57;;;;;;;4.8;1.9;;;;;;;9.11;76.20313;98979.78;;;;
2021/05/08 08:52:56;;;;;;;6.9;3;;;;;;;9.6;78.33887;98996.34;;;;
2021/05/08 09:02:55;;;;;;;5.6;2.8;;;;;;;9.94;74.52246;98981.84;;;;
2021/05/08 09:12:53;;;;;;;4.3;1.8;;;;;;;10.64;71.90723;98995.23;;;;
2021/05/08 09:22:52;;;;;;;5.5;2.5;;;;;;;9.32;78.1416;99012.6;;;;
2021/05/08 09:32:51;;;;;;;5;2.9;;;;;;;9.14;78.37695;99016.05;;;;
2021/05/08 09:42:50;;;;;;;6.2;3.2;;;;;;;9.92;77.73047;99016.34;;;;
2021/05/08 09:52:49;;;;;;;6.2;2.9;;;;;;;9.85;76.53516;98994.38;;;;
2021/05/08 10:02:47;;;;;;;4.4;2.9;;;;;;;10.78;75.2998;98972.59;;;;
2021/05/08 10:12:46;;;;;;;7.7;3.7;;;;;;;9.96;78.56055;98988.52;;;;
2021/05/08 10:22:45;;;;;;;5.7;3;;;;;;;10.93;73.59473;98977.66;;;;
2021/05/08 10:32:44;;;;;;;5.7;3;;;;;;;11.1;67.63672;98985.17;;;;
2021/05/08 10:42:43;;;;;;;4.6;3.1;;;;;;;11.1;69.98242;98975.19;;;;
2021/05/08 10:52:47;;;;;;;6.7;3.3;;;;;;;11.52;66.73926;98982.09;;;;
2021/05/08 11:02:56;;;;;;;6.2;3.3;;;;;;;11.76;67.72754;98989.17;;;;
2021/05/08 11:12:56;;;;;;;6;3;;;;;;;12.06;68.9668;98973.05;;;;
2021/05/08 11:22:38;;;;;;;6.9;3.7;;;;;;;11.22;68.84375;98984.64;;;;
2021/05/08 11:32:37;;;;;;;6.1;4;;;;;;;12.07;69.06934;98973.84;;;;
2021/05/08 11:42:36;;;;;;;7.9;3.6;;;;;;;12.67;64.92188;98978.81;;;;
2021/05/08 11:52:37;;;;;;;6;3.1;;;;;;;11.75;61.37891;98977.58;;;;
2021/05/08 12:02:34;;;;;;;8.7;3.1;;;;;;;11.73;62.87598;98963.56;;;;
2021/05/08 12:12:33;;;;;;;4.4;2.5;;;;;;;12.16;59;98952.27;;;;
2021/05/08 12:22:32;;;;;;;6.6;3.5;;;;;;;12.25;56.71191;98959.31;;;;
2021/05/08 12:32:31;;;;;;;6.9;3.5;;;;;;;13;60.24316;98942.97;;;;
2021/05/08 12:42:43;;;;;;;6;2.6;;;;;;;13.48;53.34961;98936.7;;;;
2021/05/08 12:52:30;;;;;;;6.8;3.6;;;;;;;12.86;51.18359;98933.38;;;;
2021/05/08 13:02:31;;;;;;;5.3;2.4;;;;;;;12.81;48.97168;98939.7;;;;
2021/05/08 13:12:32;;;;;;;4.5;2.8;;;;;;;12.73;47.85254;98928.88;;;;
2021/05/08 13:22:31;;;;;;;17.6;8;;;;;;;13.12;44.44824;98928.84;;;;
2021/05/08 13:32:29;;;;;;;5.4;2.2;;;;;;;13.38;37.8291;98931.6;;;;
2021/05/08 13:42:26;;;;;;;12.9;8.4;;;;;;;13.53;36.6709;98931.95;;;;
2021/05/08 13:52:25;;;;;;;6.3;2.5;;;;;;;13.98;35.66113;98932.41;;;;
2021/05/08 14:02:24;;;;;;;10.9;4.5;;;;;;;14.36;35.94531;98924.38;;;;
2021/05/08 14:12:23;;;;;;;4.3;1.9;;;;;;;15.02;36.0332;98913.87;;;;
2021/05/08 14:22:23;;;;;;;10;4.5;;;;;;;15.63;34.25781;98906.91;;;;
2021/05/08 14:32:22;;;;;;;10.4;4.8;;;;;;;15.55;33.61621;98918.63;;;;
2021/05/08 14:42:22;;;;;;;4.7;2.4;;;;;;;15.23;32.78223;98908.47;;;;
2021/05/08 14:52:21;;;;;;;5.7;3.2;;;;;;;15.36;32.24902;98905.49;;;;
2021/05/08 15:02:20;;;;;;;6.3;3.6;;;;;;;15.44;32.98242;98911.99;;;;
2021/05/08 15:12:20;;;;;;;5.6;2.6;;;;;;;18.03;30.10742;98919.34;;;;
2021/05/08 15:22:19;;;;;;;6.2;3.1;;;;;;;18.89;28.34668;98913.02;;;;
2021/05/08 15:32:19;;;;;;;8;4.2;;;;;;;20.53;27.16309;98920.77;;;;
2021/05/08 15:42:19;;;;;;;21.9;11.2;;;;;;;20.02;27.15527;98918.25;;;;
2021/05/08 15:52:20;;;;;;;5.9;2.7;;;;;;;19.51;26.58594;98916.78;;;;
2021/05/08 16:02:20;;;;;;;14.9;7.3;;;;;;;18.09;28.50488;98916.02;;;;
2021/05/08 16:12:20;;;;;;;5.6;3.1;;;;;;;16.39;31.60645;98903.74;;;;
2021/05/08 16:22:19;;;;;;;5.7;2.7;;;;;;;15.17;35.11133;98902.42;;;;
2021/05/08 16:32:19;;;;;;;5.3;2.4;;;;;;;15;35.28223;98906.04;;;;
2021/05/08 16:42:18;;;;;;;9.2;3.1;;;;;;;15.67;35.31348;98907.83;;;;
2021/05/08 16:52:18;;;;;;;9.5;5.9;;;;;;;16.68;34.1543;98906.31;;;;
2021/05/08 17:02:17;;;;;;;17.7;6.3;;;;;;;16.06;34.36035;98914.67;;;;
2021/05/08 17:12:17;;;;;;;8.9;3.9;;;;;;;16.55;33.22949;98905.52;;;;
2021/05/08 17:22:17;;;;;;;10.2;5.8;;;;;;;14.18;36.91992;98913.86;;;;
2021/05/08 17:32:16;;;;;;;9.4;5.1;;;;;;;13.12;38.02539;98909.9;;;;
2021/05/08 17:42:15;;;;;;;15.1;7.4;;;;;;;12.23;39.9873;98923.71;;;;
2021/05/08 17:52:14;;;;;;;21.4;11.1;;;;;;;11.27;44.26074;98920.59;;;;
2021/05/08 18:02:13;;;;;;;11.3;6.1;;;;;;;10.26;45.21777;98917.23;;;;
2021/05/08 18:12:11;;;;;;;8.6;5.7;;;;;;;9.33;47.48145;98934.33;;;;
2021/05/08 18:22:10;;;;;;;15.9;14.2;;;;;;;8.67;52.78613;98944.3;;;;
2021/05/08 18:32:08;;;;;;;15.5;13.5;;;;;;;7.84;54.79688;98949.91;;;;
2021/05/08 18:42:07;;;;;;;29.6;23.5;;;;;;;7.06;56.50098;98953.34;;;;
2021/05/08 18:52:05;;;;;;;19.7;17.6;;;;;;;6.58;61.37305;98954.86;;;;
2021/05/08 19:02:03;;;;;;;16;14.3;;;;;;;6.27;63.67285;98952.52;;;;
2021/05/08 19:12:02;;;;;;;27.6;20.3;;;;;;;5.97;66.93262;98950.69;;;;
2021/05/08 19:22:00;;;;;;;21.1;14.8;;;;;;;5.85;66.58984;98958.94;;;;
2021/05/08 19:31:58;;;;;;;22.2;14.4;;;;;;;5.41;68.35449;98966.66;;;;
2021/05/08 19:41:56;;;;;;;25.6;20.2;;;;;;;5.07;70.90234;98962.8;;;;
2021/05/08 19:51:54;;;;;;;28.8;22.1;;;;;;;4.73;71.45996;98965.08;;;;
2021/05/08 20:01:52;;;;;;;31.5;22.5;;;;;;;4.45;70.81152;98957.45;;;;
2021/05/08 20:11:50;;;;;;;25.9;18.2;;;;;;;4.34;74.07813;98966.48;;;;
2021/05/08 20:21:48;;;;;;;26;17.2;;;;;;;4.47;76.4043;98960.68;;;;
2021/05/08 20:31:46;;;;;;;17.9;14.4;;;;;;;4.42;75.39355;98971.31;;;;
2021/05/08 20:41:44;;;;;;;29;19.8;;;;;;;4.18;73.53809;98967.42;;;;
2021/05/08 20:51:42;;;;;;;31.3;22;;;;;;;4.16;75.34863;98964.22;;;;
2021/05/08 21:01:40;;;;;;;23.4;15.6;;;;;;;4.27;73.66602;98963.23;;;;
2021/05/08 21:11:38;;;;;;;18.4;15.2;;;;;;;3.87;73.71973;98961.88;;;;
2021/05/08 21:21:36;;;;;;;31.3;23.3;;;;;;;3.55;78.02832;98953.05;;;;
2021/05/08 21:31:34;;;;;;;47.3;35.1;;;;;;;3.39;84.83691;98957.45;;;;
2021/05/08 21:41:32;;;;;;;39.4;35.1;;;;;;;3.22;89.93164;98969.25;;;;
2021/05/08 21:51:30;;;;;;;40.2;33.6;;;;;;;3;91.17676;98966.61;;;;
2021/05/08 22:01:30;;;;;;;34.5;30.8;;;;;;;2.79;91.58594;98962.91;;;;
2021/05/08 22:11:25;;;;;;;34.8;30.2;;;;;;;2.63;93.54688;98969.09;;;;
2021/05/08 22:21:23;;;;;;;39.9;30.9;;;;;;;2.52;95.74805;98981.45;;;;
2021/05/08 22:31:21;;;;;;;37.1;30.3;;;;;;;2.38;99.18359;98966.89;;;;
2021/05/08 22:41:19;;;;;;;24;20.8;;;;;;;2.27;100;98974.96;;;;
2021/05/08 22:51:16;;;;;;;31.9;22;;;;;;;2.16;96.74512;98981.17;;;;
2021/05/08 23:01:14;;;;;;;26.9;20.3;;;;;;;2.11;100;98971.29;;;;
2021/05/08 23:11:12;;;;;;;27;20.3;;;;;;;1.99;98.9834;98966.05;;;;
2021/05/08 23:21:09;;;;;;;24.9;19.6;;;;;;;1.85;100;98975.39;;;;
2021/05/08 23:31:09;;;;;;;23.6;21.1;;;;;;;1.71;100;98971.44;;;;
2021/05/08 23:41:05;;;;;;;34.3;23.3;;;;;;;1.7;100;98975.13;;;;
2021/05/08 23:51:02;;;;;;;27.9;23.3;;;;;;;1.61;100;98976.59;;;;
